createdAt,value
2023-02-15T00:01:56.845Z,13.13
2023-02-15T00:04:00.916Z,13.18
2023-02-15T00:06:03.677Z,14.18
2023-02-15T00:08:06.463Z,12.98
2023-02-15T00:10:09.807Z,12.75
2023-02-15T00:12:12.529Z,13.93
2023-02-15T00:14:18.143Z,12.43
2023-02-15T00:16:20.742Z,11.68
2023-02-15T00:18:23.365Z,11.98
2023-02-15T00:20:27.400Z,11.77
2023-02-15T00:22:29.994Z,12.50
2023-02-15T00:24:32.670Z,11.98
2023-02-15T00:26:35.833Z,12.55
2023-02-15T00:28:38.794Z,11.43
2023-02-15T00:30:41.441Z,13.00
2023-02-15T00:32:44.090Z,11.55
2023-02-15T00:34:46.721Z,11.98
2023-02-15T00:36:51.083Z,13.90
2023-02-15T00:38:53.787Z,13.85
2023-02-15T00:40:57.077Z,12.88
2023-02-15T00:43:00.575Z,12.45
2023-02-15T00:45:03.232Z,12.85
2023-02-15T00:47:05.934Z,13.73
2023-02-15T00:49:08.798Z,13.30
2023-02-15T00:51:11.471Z,11.80
2023-02-15T00:53:15.429Z,13.35
2023-02-15T00:55:18.428Z,12.65
2023-02-15T00:57:21.247Z,11.48
2023-02-15T00:59:23.904Z,12.15
2023-02-15T01:01:26.787Z,12.77
2023-02-15T01:03:29.511Z,12.63
2023-02-15T01:05:32.334Z,13.60
2023-02-15T01:07:35.044Z,12.32
2023-02-15T01:09:39.112Z,11.52
2023-02-15T01:11:41.818Z,13.85
2023-02-15T01:13:44.453Z,13.60
2023-02-15T01:15:47.119Z,10.55
2023-02-15T01:17:53.601Z,12.35
2023-02-15T01:19:56.320Z,13.48
2023-02-15T01:21:58.949Z,12.18
2023-02-15T01:24:01.693Z,13.63
2023-02-15T01:26:05.871Z,12.57
2023-02-15T01:28:08.755Z,12.80
2023-02-15T01:30:12.556Z,12.63
2023-02-15T01:32:15.298Z,13.07
2023-02-15T01:34:17.959Z,12.25
2023-02-15T01:36:20.686Z,13.30
2023-02-15T01:38:23.376Z,13.32
2023-02-15T01:40:26.842Z,14.43
2023-02-15T01:42:32.797Z,14.07
2023-02-15T01:44:53.590Z,13.63
2023-02-15T01:46:56.332Z,14.13
2023-02-15T01:49:05.357Z,14.25
2023-02-15T01:51:08.488Z,12.95
2023-02-15T01:53:18.936Z,13.60
2023-02-15T01:55:24.255Z,13.20
2023-02-15T01:57:29.600Z,13.75
2023-02-15T01:59:36.170Z,13.95
2023-02-15T02:01:40.218Z,13.95
2023-02-15T02:03:51.869Z,14.48
2023-02-15T02:05:54.545Z,13.80
2023-02-15T02:08:00.300Z,14.88
2023-02-15T02:10:03.738Z,15.00
2023-02-15T02:12:07.598Z,13.27
2023-02-15T02:14:10.352Z,13.68
2023-02-15T02:16:19.086Z,14.95
2023-02-15T02:18:35.932Z,12.75
2023-02-15T02:21:00.116Z,13.68
2023-02-15T02:23:17.768Z,12.80
2023-02-15T02:25:54.802Z,12.85
2023-02-15T02:28:16.015Z,12.13
2023-02-15T02:30:42.398Z,13.18
2023-02-15T02:33:10.013Z,12.55
2023-02-15T02:35:18.616Z,14.38
2023-02-15T02:37:26.789Z,13.68
2023-02-15T02:39:37.462Z,13.52
2023-02-15T02:41:49.652Z,10.77
2023-02-15T02:43:57.101Z,13.00
2023-02-15T02:46:04.904Z,12.35
2023-02-15T02:48:14.306Z,12.95
2023-02-15T02:50:20.479Z,13.65
2023-02-15T02:52:48.167Z,14.52
2023-02-15T02:54:50.888Z,14.02
2023-02-15T02:56:55.222Z,15.40
2023-02-15T02:59:04.052Z,14.73
2023-02-15T03:01:11.040Z,12.93
2023-02-15T03:05:24.100Z,12.75
2023-02-15T03:07:31.086Z,14.07
2023-02-15T03:09:45.375Z,17.02
2023-02-15T03:11:49.164Z,15.13
2023-02-15T03:13:52.128Z,14.57
2023-02-15T03:16:12.349Z,15.43
2023-02-15T03:18:18.925Z,14.77
2023-02-15T03:20:26.489Z,15.50
2023-02-15T03:22:33.367Z,14.88
2023-02-15T03:24:40.421Z,15.43
2023-02-15T03:28:51.886Z,12.85
2023-02-15T03:30:57.825Z,12.75
2023-02-15T03:33:02.802Z,14.13
2023-02-15T03:35:07.928Z,14.68
2023-02-15T03:37:15.690Z,13.70
2023-02-15T03:39:22.843Z,12.93
2023-02-15T03:41:28.608Z,12.98
2023-02-15T03:43:39.723Z,13.65
2023-02-15T03:45:55.765Z,12.32
2023-02-15T03:48:02.182Z,12.95
2023-02-15T03:50:30.587Z,13.95
2023-02-15T03:52:35.131Z,13.43
2023-02-15T03:54:45.017Z,13.23
2023-02-15T03:57:07.993Z,13.15
2023-02-15T03:59:28.510Z,14.20
2023-02-15T04:01:59.002Z,12.98
2023-02-15T04:04:06.672Z,11.98
2023-02-15T04:06:10.702Z,12.55
2023-02-15T04:08:13.786Z,14.07
2023-02-15T04:10:34.360Z,12.70
2023-02-15T04:12:37.100Z,13.30
2023-02-15T04:14:57.137Z,13.50
2023-02-15T04:16:59.770Z,12.93
2023-02-15T04:19:19.794Z,12.30
2023-02-15T04:21:43.867Z,12.95
2023-02-15T04:24:04.151Z,13.15
2023-02-15T04:26:06.884Z,13.13
2023-02-15T04:28:09.502Z,13.57
2023-02-15T04:30:13.380Z,14.35
2023-02-15T04:32:16.246Z,13.45
2023-02-15T04:34:18.980Z,13.23
2023-02-15T04:36:23.043Z,14.60
2023-02-15T04:38:25.871Z,14.80
2023-02-15T04:40:28.579Z,14.45
2023-02-15T04:42:31.199Z,14.10
2023-02-15T04:44:33.870Z,14.43
2023-02-15T04:46:36.647Z,13.45
2023-02-15T04:48:39.315Z,16.27
2023-02-15T04:50:41.964Z,15.63
2023-02-15T04:52:46.685Z,15.05
2023-02-15T04:54:49.278Z,15.85
2023-02-15T04:56:51.879Z,14.85
2023-02-15T04:58:54.685Z,15.80
2023-02-15T05:00:57.958Z,14.45
2023-02-15T05:03:00.719Z,15.90
2023-02-15T05:05:03.363Z,14.77
2023-02-15T05:07:06.010Z,15.77
2023-02-15T05:09:09.954Z,15.90
2023-02-15T05:11:12.628Z,16.60
2023-02-15T05:13:15.345Z,16.00
2023-02-15T05:15:18.234Z,16.27
2023-02-15T05:17:20.917Z,16.02
2023-02-15T05:19:25.465Z,16.30
2023-02-15T05:21:28.384Z,16.90
2023-02-15T05:23:31.386Z,17.00
2023-02-15T05:25:52.865Z,17.42
2023-02-15T05:28:27.979Z,17.00
2023-02-15T05:30:30.825Z,16.58
2023-02-15T05:32:33.694Z,17.58
2023-02-15T05:34:36.503Z,17.05
2023-02-15T05:36:39.146Z,16.20
2023-02-15T05:38:42.100Z,15.73
2023-02-15T05:40:46.347Z,14.63
2023-02-15T05:42:49.629Z,15.70
2023-02-15T05:44:52.264Z,16.38
2023-02-15T05:46:54.980Z,16.10
2023-02-15T05:48:57.860Z,15.90
2023-02-15T05:51:01.547Z,14.18
2023-02-15T05:53:04.207Z,13.18
2023-02-15T05:55:09.688Z,13.82
2023-02-15T05:57:13.701Z,14.40
2023-02-15T05:59:16.596Z,14.45
2023-02-15T06:01:22.760Z,13.32
2023-02-15T06:03:29.398Z,13.45
2023-02-15T06:05:32.161Z,14.05
2023-02-15T06:07:35.102Z,14.55
2023-02-15T06:09:37.734Z,13.60
2023-02-15T06:11:40.494Z,14.43
2023-02-15T06:13:44.475Z,14.27
2023-02-15T06:15:47.245Z,13.95
2023-02-15T06:17:49.975Z,13.80
2023-02-15T06:19:52.653Z,15.02
2023-02-15T06:21:55.231Z,14.60
2023-02-15T06:23:58.048Z,13.63
2023-02-15T06:26:01.193Z,13.13
2023-02-15T06:28:04.022Z,13.70
2023-02-15T06:30:09.936Z,13.43
2023-02-15T06:32:12.732Z,13.27
2023-02-15T06:34:15.653Z,12.82
2023-02-15T06:36:18.393Z,13.75
2023-02-15T06:38:20.976Z,12.55
2023-02-15T06:40:23.817Z,14.13
2023-02-15T06:42:26.909Z,12.70
2023-02-15T06:44:29.737Z,13.43
2023-02-15T06:46:33.770Z,13.23
2023-02-15T06:48:36.493Z,12.93
2023-02-15T06:50:39.432Z,12.82
2023-02-15T06:52:42.025Z,12.00
2023-02-15T06:54:44.809Z,12.52
2023-02-15T06:56:47.501Z,13.77
2023-02-15T06:58:50.935Z,14.10
2023-02-15T07:00:53.696Z,13.82
2023-02-15T07:02:58.638Z,13.80
2023-02-15T07:05:01.445Z,14.57
2023-02-15T07:07:04.256Z,13.27
2023-02-15T07:09:07.175Z,13.60
2023-02-15T07:11:27.325Z,14.20
2023-02-15T07:13:29.965Z,13.88
2023-02-15T07:15:32.518Z,14.45
2023-02-15T07:17:36.498Z,13.73
2023-02-15T07:19:41.032Z,13.98
2023-02-15T07:21:44.955Z,13.38
2023-02-15T07:23:47.597Z,13.98
2023-02-15T07:25:50.369Z,13.90
2023-02-15T07:27:58.275Z,12.90
2023-02-15T07:30:02.112Z,13.23
2023-02-15T07:32:04.796Z,12.68
2023-02-15T07:34:08.431Z,13.15
2023-02-15T07:36:13.380Z,12.95
2023-02-15T07:38:16.093Z,13.52
2023-02-15T07:40:19.205Z,12.73
2023-02-15T07:42:22.907Z,13.10
2023-02-15T07:44:25.821Z,12.98
2023-02-15T07:46:28.885Z,12.32
2023-02-15T07:48:32.003Z,11.75
2023-02-15T07:50:34.660Z,13.95
2023-02-15T07:52:38.844Z,12.10
2023-02-15T07:54:41.519Z,12.82
2023-02-15T07:56:44.107Z,12.63
2023-02-15T07:58:52.566Z,12.45
2023-02-15T08:01:02.684Z,10.88
2023-02-15T08:03:17.463Z,10.80
2023-02-15T08:05:20.137Z,9.82
2023-02-15T08:07:22.720Z,8.80
2023-02-15T08:09:26.858Z,9.48
2023-02-15T08:11:33.484Z,9.65
2023-02-15T08:13:36.142Z,9.00
2023-02-15T08:15:38.823Z,9.55
2023-02-15T08:17:41.472Z,8.82
2023-02-15T08:19:44.145Z,9.55
2023-02-15T08:21:48.870Z,9.75
2023-02-15T08:23:51.520Z,9.43
2023-02-15T08:25:55.549Z,9.05
2023-02-15T08:27:58.153Z,10.05
2023-02-15T08:30:00.849Z,8.85
2023-02-15T08:32:05.986Z,9.32
2023-02-15T08:34:09.957Z,9.10
2023-02-15T08:36:14.778Z,9.05
2023-02-15T08:38:17.435Z,9.10
2023-02-15T08:40:20.113Z,9.63
2023-02-15T08:42:24.317Z,8.85
2023-02-15T08:44:27.125Z,8.93
2023-02-15T08:46:31.499Z,10.30
2023-02-15T08:48:34.463Z,9.73
2023-02-15T08:50:37.101Z,9.23
2023-02-15T08:52:39.728Z,9.18
2023-02-15T08:54:42.477Z,9.63
2023-02-15T08:56:46.110Z,9.57
2023-02-15T08:58:50.789Z,9.65
2023-02-15T09:00:53.641Z,9.82
2023-02-15T09:02:56.414Z,9.55
2023-02-15T09:04:59.052Z,9.20
2023-02-15T09:07:01.736Z,9.00
2023-02-15T09:09:04.623Z,9.20
2023-02-15T09:11:12.099Z,8.57
2023-02-15T09:13:15.150Z,8.73
2023-02-15T09:15:19.179Z,8.60
2023-02-15T09:17:21.868Z,8.70
2023-02-15T09:19:25.607Z,9.02
2023-02-15T09:21:28.548Z,8.63
2023-02-15T09:23:31.201Z,8.70
2023-02-15T09:25:33.766Z,8.75
2023-02-15T09:27:37.450Z,8.75
2023-02-15T09:29:40.123Z,9.38
2023-02-15T09:31:46.031Z,8.93
2023-02-15T09:33:50.064Z,9.43
2023-02-15T09:35:52.752Z,9.20
2023-02-15T09:37:55.445Z,9.25
2023-02-15T09:39:58.316Z,9.30
2023-02-15T09:42:34.120Z,9.35
2023-02-15T09:44:55.918Z,9.60
2023-02-15T09:47:14.661Z,10.73
2023-02-15T09:49:29.520Z,10.18
2023-02-15T09:51:51.032Z,10.10
2023-02-15T09:54:09.342Z,10.15
2023-02-15T09:56:21.210Z,8.70
2023-02-15T09:58:37.394Z,10.05
2023-02-15T10:00:47.966Z,9.57
2023-02-15T10:03:13.792Z,9.43
2023-02-15T10:05:27.340Z,9.15
2023-02-15T10:07:48.005Z,9.30
2023-02-15T10:10:05.204Z,10.88
2023-02-15T10:12:25.854Z,10.27
2023-02-15T10:14:52.440Z,10.57
2023-02-15T10:17:03.322Z,9.52
2023-02-15T10:19:18.625Z,9.45
2023-02-15T10:21:34.914Z,10.88
2023-02-15T10:24:10.151Z,10.35
2023-02-15T10:26:19.567Z,9.57
2023-02-15T10:28:28.785Z,10.23
2023-02-15T10:30:43.512Z,9.63
2023-02-15T10:32:56.522Z,10.27
2023-02-15T10:35:04.226Z,9.77
2023-02-15T10:37:28.764Z,9.90
2023-02-15T10:39:41.010Z,10.75
2023-02-15T10:41:49.885Z,10.02
2023-02-15T10:44:06.596Z,10.07
2023-02-15T10:46:17.141Z,10.02
2023-02-15T10:48:37.196Z,9.52
2023-02-15T10:50:49.469Z,9.48
2023-02-15T10:53:05.287Z,9.05
2023-02-15T10:55:16.757Z,10.35
2023-02-15T10:57:28.698Z,9.05
2023-02-15T11:00:00.775Z,9.45
2023-02-15T11:02:12.945Z,9.13
2023-02-15T11:04:42.195Z,8.80
2023-02-15T11:06:53.185Z,8.90
2023-02-15T11:09:01.770Z,9.35
2023-02-15T11:11:08.431Z,8.48
2023-02-15T11:13:15.527Z,8.40
2023-02-15T11:15:26.720Z,8.70
2023-02-15T11:17:39.559Z,8.35
2023-02-15T11:19:50.321Z,8.85
2023-02-15T11:21:57.770Z,8.27
2023-02-15T11:24:02.164Z,8.35
2023-02-15T11:26:08.429Z,7.82
2023-02-15T11:28:20.668Z,8.10
2023-02-15T11:30:26.297Z,7.85
2023-02-15T11:32:31.378Z,8.80
2023-02-15T11:34:37.833Z,9.77
2023-02-15T11:36:43.136Z,8.85
2023-02-15T11:38:51.654Z,8.40
2023-02-15T11:41:01.102Z,8.43
2023-02-15T11:43:08.454Z,8.65
2023-02-15T11:45:24.272Z,8.60
2023-02-15T11:47:27.297Z,8.23
2023-02-15T11:49:33.319Z,8.25
2023-02-15T11:51:37.469Z,9.07
2023-02-15T11:53:40.974Z,9.77
2023-02-15T11:55:46.472Z,9.13
2023-02-15T11:57:54.761Z,10.45
2023-02-15T12:00:05.165Z,11.20
2023-02-15T12:02:18.427Z,12.70
2023-02-15T12:04:27.170Z,11.35
2023-02-15T12:06:34.201Z,11.07
2023-02-15T12:08:43.902Z,11.82
2023-02-15T12:10:59.172Z,11.68
2023-02-15T12:13:12.900Z,12.77
2023-02-15T12:15:16.182Z,11.25
2023-02-15T12:17:20.085Z,10.82
2023-02-15T12:19:31.797Z,11.13
2023-02-15T12:21:41.723Z,12.07
2023-02-15T12:23:50.126Z,11.77
2023-02-15T12:25:59.247Z,11.65
2023-02-15T12:28:01.991Z,12.00
2023-02-15T12:30:08.331Z,12.13
2023-02-15T12:32:19.178Z,12.30
2023-02-15T12:34:26.270Z,11.63
2023-02-15T12:36:32.669Z,11.93
2023-02-15T12:38:36.786Z,11.65
2023-02-15T12:40:41.125Z,11.40
2023-02-15T12:42:46.641Z,12.75
2023-02-15T12:44:58.403Z,13.35
2023-02-15T12:47:04.629Z,11.80
2023-02-15T12:49:10.186Z,11.88
2023-02-15T12:51:17.629Z,11.57
2023-02-15T12:53:24.360Z,11.63
2023-02-15T12:55:30.787Z,13.38
2023-02-15T12:57:34.740Z,12.18
2023-02-15T12:59:39.541Z,11.00
2023-02-15T13:01:46.015Z,12.00
2023-02-15T13:04:00.918Z,12.32
2023-02-15T13:06:08.218Z,12.68
2023-02-15T13:08:15.780Z,12.98
2023-02-15T13:10:28.458Z,12.00
2023-02-15T13:12:34.607Z,12.15
2023-02-15T13:14:41.307Z,12.00
2023-02-15T13:16:46.702Z,12.98
2023-02-15T13:18:54.152Z,12.82
2023-02-15T13:20:58.061Z,10.75
2023-02-15T13:23:06.261Z,10.38
2023-02-15T13:25:15.184Z,11.65
2023-02-15T13:27:20.743Z,10.10
2023-02-15T13:29:26.704Z,10.40
2023-02-15T13:31:33.624Z,10.65
2023-02-15T13:33:39.180Z,11.32
2023-02-15T13:35:48.249Z,10.82
2023-02-15T13:38:08.625Z,11.15
2023-02-15T13:40:17.555Z,11.52
2023-02-15T13:42:24.555Z,11.32
2023-02-15T13:44:49.432Z,10.60
2023-02-15T13:47:06.824Z,11.15
2023-02-15T13:49:21.428Z,10.85
2023-02-15T13:51:33.344Z,11.27
2023-02-15T13:54:13.668Z,10.45
2023-02-15T13:56:25.692Z,10.02
2023-02-15T13:59:06.918Z,10.38
2023-02-15T14:01:15.811Z,9.95
2023-02-15T14:03:57.605Z,10.65
2023-02-15T14:06:37.069Z,11.27
2023-02-15T14:08:56.468Z,10.55
2023-02-15T14:11:05.198Z,10.77
2023-02-15T14:13:40.516Z,10.30
2023-02-15T14:15:49.010Z,11.77
2023-02-15T14:18:02.061Z,10.10
2023-02-15T14:20:18.625Z,10.75
2023-02-15T14:22:30.975Z,10.73
2023-02-15T14:24:44.225Z,9.82
2023-02-15T14:26:54.974Z,10.20
2023-02-15T14:29:06.842Z,10.65
2023-02-15T14:31:14.055Z,10.25
2023-02-15T14:33:34.645Z,10.02
2023-02-15T14:35:39.189Z,8.30
2023-02-15T14:37:48.542Z,10.05
2023-02-15T14:40:17.540Z,10.35
2023-02-15T14:42:27.562Z,9.40
2023-02-15T14:44:36.582Z,8.65
2023-02-15T14:46:43.831Z,9.18
2023-02-15T14:48:50.245Z,9.27
2023-02-15T14:50:54.522Z,8.90
2023-02-15T14:53:18.797Z,8.82
2023-02-15T14:55:37.042Z,9.48
2023-02-15T14:57:39.651Z,7.93
2023-02-15T14:59:46.116Z,8.65
2023-02-15T15:02:00.173Z,8.40
2023-02-15T15:04:08.464Z,8.80
2023-02-15T15:06:28.375Z,10.52
2023-02-15T15:08:36.380Z,8.25
2023-02-15T15:10:44.969Z,8.75
2023-02-15T15:12:49.105Z,9.05
2023-02-15T15:14:52.953Z,8.38
2023-02-15T15:16:55.666Z,9.02
2023-02-15T15:18:59.409Z,9.15
2023-02-15T15:21:02.357Z,8.38
2023-02-15T15:23:40.987Z,9.60
2023-02-15T15:25:46.870Z,9.77
2023-02-15T15:27:53.615Z,9.05
2023-02-15T15:29:56.286Z,9.45
2023-02-15T15:32:03.412Z,8.73
2023-02-15T15:35:01.707Z,9.48
2023-02-15T15:37:43.819Z,9.20
2023-02-15T15:40:20.873Z,9.98
2023-02-15T15:42:34.568Z,8.55
2023-02-15T15:45:30.729Z,8.70
2023-02-15T15:47:51.273Z,8.85
2023-02-15T15:49:58.691Z,10.18
2023-02-15T15:52:03.969Z,8.68
2023-02-15T15:54:06.715Z,9.75
2023-02-15T15:56:14.512Z,9.07
2023-02-15T15:58:21.185Z,10.00
2023-02-15T16:02:51.940Z,9.90
2023-02-15T16:04:54.605Z,10.43
2023-02-15T16:06:57.940Z,9.25
2023-02-15T16:09:12.394Z,9.52
2023-02-15T16:11:20.118Z,10.63
2023-02-15T16:13:24.556Z,9.68
2023-02-15T16:15:32.949Z,10.10
2023-02-15T16:17:35.644Z,10.80
2023-02-15T16:19:41.830Z,9.82
2023-02-15T16:21:44.628Z,9.50
2023-02-15T16:24:08.866Z,11.38
2023-02-15T16:26:20.208Z,10.82
2023-02-15T16:28:24.318Z,10.82
2023-02-15T16:30:32.162Z,10.73
2023-02-15T16:32:37.319Z,10.20
2023-02-15T16:34:40.059Z,10.23
2023-02-15T16:36:42.788Z,9.45
2023-02-15T16:39:10.547Z,9.65
2023-02-15T16:41:17.460Z,9.35
2023-02-15T16:43:26.768Z,8.32
2023-02-15T16:45:31.683Z,9.20
2023-02-15T16:47:38.264Z,9.20
2023-02-15T16:49:47.760Z,9.55
2023-02-15T16:51:58.654Z,8.80
2023-02-15T16:54:07.943Z,8.98
2023-02-15T16:56:11.832Z,8.85
2023-02-15T16:58:18.167Z,8.68
2023-02-15T17:00:26.993Z,8.68
2023-02-15T17:02:54.446Z,7.57
2023-02-15T17:05:16.633Z,8.75
2023-02-15T17:07:21.053Z,7.93
2023-02-15T17:09:26.436Z,8.18
2023-02-15T17:11:36.557Z,7.63
2023-02-15T17:13:39.725Z,7.43
2023-02-15T17:15:45.566Z,7.30
2023-02-15T17:17:48.503Z,7.55
2023-02-15T17:19:55.220Z,7.57
2023-02-15T17:24:05.123Z,7.22
2023-02-15T17:26:16.391Z,8.07
2023-02-15T17:28:21.580Z,7.25
2023-02-15T17:30:29.931Z,7.68
2023-02-15T17:32:37.180Z,8.15
2023-02-15T17:34:46.712Z,8.15
2023-02-15T17:36:59.514Z,7.85
2023-02-15T17:39:07.194Z,8.65
2023-02-15T17:41:10.698Z,8.65
2023-02-15T17:43:13.331Z,7.80
2023-02-15T17:45:16.336Z,7.55
2023-02-15T17:47:21.338Z,8.20
2023-02-15T17:49:29.335Z,8.32
2023-02-15T17:51:33.142Z,8.88
2023-02-15T17:53:36.777Z,9.27
2023-02-15T17:55:42.947Z,9.80
2023-02-15T17:57:45.541Z,9.40
2023-02-15T18:00:05.961Z,9.13
2023-02-15T18:02:30.313Z,8.73
2023-02-15T18:04:54.923Z,8.50
2023-02-15T18:09:39.103Z,8.60
2023-02-15T18:11:42.459Z,7.55
2023-02-15T18:13:45.165Z,8.07
2023-02-15T18:15:47.737Z,7.15
2023-02-15T18:17:50.475Z,7.30
2023-02-15T18:19:55.222Z,7.25
2023-02-15T18:21:58.043Z,7.68
2023-02-15T18:24:01.193Z,7.68
2023-02-15T18:26:04.324Z,7.80
2023-02-15T18:28:07.434Z,7.47
2023-02-15T18:30:15.840Z,7.95
2023-02-15T18:32:22.912Z,7.35
2023-02-15T18:34:29.796Z,7.60
2023-02-15T18:38:37.350Z,7.38
2023-02-15T18:40:39.992Z,7.53
2023-02-15T18:42:47.083Z,8.25
2023-02-15T18:44:49.835Z,8.25
2023-02-15T18:46:52.472Z,9.48
2023-02-15T18:48:55.116Z,7.60
2023-02-15T18:50:57.848Z,7.88
2023-02-15T18:53:04.295Z,8.20
2023-02-15T18:55:17.560Z,7.20
2023-02-15T18:57:20.366Z,6.50
2023-02-15T18:59:23.636Z,6.32
2023-02-15T19:01:26.957Z,6.15
2023-02-15T19:03:29.793Z,5.95
2023-02-15T19:05:33.849Z,6.43
2023-02-15T19:07:37.955Z,6.30
2023-02-15T19:09:42.577Z,6.07
2023-02-15T19:11:50.466Z,8.02
2023-02-15T19:13:53.777Z,5.95
2023-02-15T19:15:57.029Z,7.20
2023-02-15T19:17:59.677Z,6.65
2023-02-15T19:20:02.357Z,7.60
2023-02-15T19:22:05.492Z,11.38
2023-02-15T19:24:13.463Z,11.80
2023-02-15T19:26:17.384Z,10.52
2023-02-15T19:28:26.056Z,9.80
2023-02-15T19:30:30.881Z,8.80
2023-02-15T19:32:33.673Z,8.23
2023-02-15T19:34:36.485Z,8.05
2023-02-15T19:36:39.268Z,9.57
2023-02-15T19:38:42.777Z,9.52
2023-02-15T19:40:46.046Z,8.50
2023-02-15T19:42:50.727Z,8.30
2023-02-15T19:44:54.583Z,7.63
2023-02-15T19:46:57.758Z,8.32
2023-02-15T19:49:00.324Z,7.57
2023-02-15T19:51:03.673Z,10.10
2023-02-15T19:53:06.644Z,10.07
2023-02-15T19:55:21.483Z,9.10
2023-02-15T19:57:24.997Z,11.10
2023-02-15T19:59:30.702Z,9.45
2023-02-15T20:01:33.501Z,8.50
2023-02-15T20:03:36.786Z,9.13
2023-02-15T20:05:40.120Z,9.38
2023-02-15T20:07:45.696Z,9.02
2023-02-15T20:09:48.445Z,8.90
2023-02-15T20:11:51.766Z,9.45
2023-02-15T20:13:54.551Z,9.65
2023-02-15T20:16:01.039Z,9.82
2023-02-15T20:18:05.048Z,8.77
2023-02-15T20:20:09.146Z,9.75
2023-02-15T20:22:22.369Z,10.93
2023-02-15T20:24:28.650Z,10.10
2023-02-15T20:26:32.533Z,9.88
2023-02-15T20:28:35.150Z,10.10
2023-02-15T20:30:37.857Z,9.25
2023-02-15T20:32:41.850Z,9.98
2023-02-15T20:34:44.478Z,9.65
2023-02-15T20:36:47.121Z,9.90
2023-02-15T20:38:50.092Z,9.77
2023-02-15T20:41:11.364Z,10.13
2023-02-15T20:43:16.094Z,9.93
2023-02-15T20:45:22.039Z,9.93
2023-02-15T20:47:26.820Z,8.77
2023-02-15T20:49:31.701Z,9.02
2023-02-15T20:51:34.421Z,9.07
2023-02-15T20:53:37.109Z,9.40
2023-02-15T20:55:39.876Z,9.95
2023-02-15T20:57:42.559Z,10.02
2023-02-15T20:59:45.210Z,9.52
2023-02-15T21:01:48.163Z,9.32
2023-02-15T21:03:53.981Z,9.75
2023-02-15T21:06:00.625Z,9.73
2023-02-15T21:08:03.405Z,10.75
2023-02-15T21:10:07.382Z,10.80
2023-02-15T21:12:13.476Z,10.80
2023-02-15T21:14:20.397Z,10.15
2023-02-15T21:16:23.112Z,10.57
2023-02-15T21:18:27.930Z,10.75
2023-02-15T21:20:33.595Z,10.55
2023-02-15T21:22:40.135Z,9.05
2023-02-15T21:24:49.127Z,10.25
2023-02-15T21:26:52.084Z,9.93
2023-02-15T21:28:55.118Z,10.73
2023-02-15T21:30:59.316Z,10.98
2023-02-15T21:33:02.219Z,10.95
2023-02-15T21:35:05.477Z,12.05
2023-02-15T21:37:27.463Z,11.25
2023-02-15T21:39:36.683Z,11.38
2023-02-15T21:41:56.046Z,11.48
2023-02-15T21:44:16.513Z,11.48
2023-02-15T21:46:38.567Z,10.35
2023-02-15T21:48:41.319Z,11.93
2023-02-15T21:51:02.183Z,10.80
2023-02-15T21:53:06.377Z,11.15
2023-02-15T21:55:14.769Z,10.65
2023-02-15T21:57:21.055Z,10.63
2023-02-15T21:59:24.665Z,10.35
2023-02-15T22:01:28.929Z,10.05
2023-02-15T22:03:34.152Z,10.80
2023-02-15T22:05:36.793Z,11.60
2023-02-15T22:07:39.505Z,12.65
2023-02-15T22:09:42.094Z,11.88
2023-02-15T22:11:46.371Z,12.75
2023-02-15T22:13:50.187Z,10.93
2023-02-15T22:15:52.922Z,10.75
2023-02-15T22:17:55.953Z,11.35
2023-02-15T22:19:59.160Z,12.63
2023-02-15T22:22:01.774Z,12.85
2023-02-15T22:24:04.723Z,11.90
2023-02-15T22:26:09.315Z,12.00
2023-02-15T22:28:16.575Z,12.27
2023-02-15T22:30:25.369Z,11.25
2023-02-15T22:32:28.386Z,11.30
2023-02-15T22:34:33.327Z,11.60
2023-02-15T22:36:35.968Z,11.73
2023-02-15T22:38:38.603Z,11.25
2023-02-15T22:40:41.569Z,11.85
2023-02-15T22:42:47.343Z,11.45
2023-02-15T22:44:51.642Z,11.50
2023-02-15T22:46:54.534Z,10.85
2023-02-15T22:48:57.150Z,10.93
2023-02-15T22:50:59.799Z,11.68
2023-02-15T22:53:03.604Z,11.45
2023-02-15T22:55:07.053Z,10.30
2023-02-15T22:57:16.885Z,11.32
2023-02-15T22:59:23.740Z,9.48
2023-02-15T23:01:32.588Z,9.57
2023-02-15T23:03:35.229Z,9.20
2023-02-15T23:05:37.991Z,10.00
2023-02-15T23:07:40.812Z,9.50
2023-02-15T23:09:43.781Z,8.73
2023-02-15T23:11:46.899Z,8.77
2023-02-15T23:13:50.282Z,8.77
2023-02-15T23:15:56.481Z,9.77
2023-02-15T23:18:05.845Z,8.75
2023-02-15T23:20:14.598Z,9.40
2023-02-15T23:22:18.411Z,9.40
2023-02-15T23:24:23.477Z,9.00
2023-02-15T23:26:28.658Z,9.15
2023-02-15T23:28:34.672Z,9.13
2023-02-15T23:30:37.389Z,8.57
2023-02-15T23:32:40.348Z,8.35
2023-02-15T23:34:44.832Z,8.82
2023-02-15T23:36:48.179Z,8.70
2023-02-15T23:38:50.893Z,8.30
2023-02-15T23:41:17.358Z,9.73
2023-02-15T23:43:22.958Z,8.75
2023-02-15T23:45:26.526Z,7.70
2023-02-15T23:47:44.746Z,8.45
2023-02-15T23:49:48.883Z,8.32
2023-02-15T23:51:53.500Z,8.90
2023-02-15T23:53:56.321Z,8.70
2023-02-15T23:55:59.710Z,8.85
2023-02-15T23:58:03.071Z,9.73
